createdAt,value
2018-02-17T00:00:37.825Z,29.50
2018-02-17T00:05:07.200Z,23.52
2018-02-17T00:09:36.095Z,28.37
2018-02-17T00:11:37.656Z,17.93
2018-02-17T00:13:38.600Z,18.60
2018-02-17T00:15:39.645Z,20.87
2018-02-17T00:17:40.658Z,17.43
2018-02-17T00:20:08.704Z,39.17
2018-02-17T00:22:09.673Z,26.10
2018-02-17T00:24:10.719Z,20.40
2018-02-17T00:26:12.467Z,26.43
2018-02-17T00:28:13.432Z,27.37
2018-02-17T00:30:14.460Z,25.33
2018-02-17T00:32:37.416Z,21.37
2018-02-17T00:34:38.483Z,23.98
2018-02-17T00:39:07.568Z,25.67
2018-02-17T00:41:08.514Z,34.83
2018-02-17T00:43:09.540Z,27.27
2018-02-17T00:47:37.971Z,19.33
2018-02-17T00:49:39.659Z,15.90
2018-02-17T00:52:07.261Z,19.83
2018-02-17T00:54:08.300Z,16.23
2018-02-17T00:56:09.328Z,27.47
2018-02-17T00:58:10.296Z,24.15
2018-02-17T01:00:11.252Z,27.97
2018-02-17T01:02:12.263Z,20.17
2018-02-17T01:04:13.249Z,28.00
2018-02-17T01:06:14.185Z,28.07
2018-02-17T01:08:15.175Z,19.13
2018-02-17T01:10:37.572Z,29.97
2018-02-17T01:12:38.548Z,20.42
2018-02-17T01:14:39.534Z,28.23
2018-02-17T01:16:41.255Z,20.70
2018-02-17T01:21:18.319Z,33.25
2018-02-17T01:23:19.364Z,29.57
2018-02-17T01:25:20.310Z,26.35
2018-02-17T01:27:22.086Z,23.93
2018-02-17T01:29:23.154Z,22.67
2018-02-17T01:31:24.128Z,22.58
2018-02-17T01:33:25.824Z,29.73
2018-02-17T01:35:27.552Z,20.58
2018-02-17T01:37:28.498Z,29.02
2018-02-17T01:39:49.976Z,25.73
2018-02-17T01:41:51.108Z,33.53
2018-02-17T01:46:20.022Z,24.55
2018-02-17T01:48:21.772Z,25.02
2018-02-17T01:55:20.129Z,26.50
2018-02-17T01:57:21.112Z,28.25
2018-02-17T01:59:31.844Z,25.50
2018-02-17T02:01:32.831Z,27.52
2018-02-17T02:03:49.825Z,35.37
2018-02-17T02:05:50.766Z,27.33
2018-02-17T02:10:19.001Z,23.50
2018-02-17T02:12:19.975Z,32.57
2018-02-17T02:14:20.948Z,39.33
2018-02-17T02:18:49.844Z,24.02
2018-02-17T02:23:19.275Z,34.53
2018-02-17T02:25:20.275Z,27.63
2018-02-17T02:27:21.284Z,32.73
2018-02-17T02:29:22.252Z,26.87
2018-02-17T02:31:23.240Z,40.63
2018-02-17T02:33:24.971Z,38.07
2018-02-17T02:35:50.032Z,34.33
2018-02-17T02:40:20.096Z,36.30
2018-02-17T02:42:21.068Z,33.47
2018-02-17T02:44:22.076Z,28.13
2018-02-17T02:46:23.077Z,35.13
2018-02-17T02:48:24.033Z,24.25
2018-02-17T02:50:24.988Z,28.43
2018-02-17T02:52:25.933Z,22.63
2018-02-17T02:54:50.768Z,28.27
2018-02-17T02:56:51.812Z,30.88
2018-02-17T02:58:53.522Z,34.70
2018-02-17T03:00:54.535Z,35.60
2018-02-17T03:02:56.251Z,35.70
2018-02-17T03:04:57.192Z,30.15
2018-02-17T03:07:19.683Z,27.17
2018-02-17T03:09:20.623Z,37.53
2018-02-17T03:11:21.587Z,48.00
2018-02-17T03:13:22.527Z,33.10
2018-02-17T03:15:50.140Z,31.27
2018-02-17T03:22:59.809Z,30.30
2018-02-17T03:27:28.840Z,32.90
2018-02-17T03:29:29.862Z,30.20
2018-02-17T03:31:30.942Z,34.72
2018-02-17T03:33:31.931Z,24.65
2018-02-17T03:35:32.896Z,36.73
2018-02-17T03:37:33.922Z,24.12
2018-02-17T03:39:34.887Z,24.35
2018-02-17T03:42:00.419Z,24.03
2018-02-17T03:48:56.928Z,26.80
2018-02-17T03:50:57.888Z,23.23
2018-02-17T03:52:59.675Z,38.60
2018-02-17T03:55:00.648Z,28.80
2018-02-17T03:57:01.600Z,40.67
2018-02-17T04:01:30.635Z,29.27
2018-02-17T04:03:31.606Z,29.87
2018-02-17T04:05:33.304Z,29.57
2018-02-17T04:07:44.964Z,21.35
2018-02-17T04:09:46.100Z,25.10
2018-02-17T04:11:47.045Z,34.77
2018-02-17T04:13:48.011Z,32.13
2018-02-17T04:15:49.701Z,30.43
2018-02-17T04:17:50.707Z,29.00
2018-02-17T04:22:24.103Z,31.65
2018-02-17T04:24:25.063Z,22.60
2018-02-17T04:28:54.280Z,29.02
2018-02-17T04:30:55.242Z,24.10
2018-02-17T04:37:51.794Z,27.45
2018-02-17T04:42:07.378Z,31.33
2018-02-17T04:44:23.823Z,34.25
2018-02-17T04:49:27.581Z,26.87
2018-02-17T04:51:34.555Z,37.17
2018-02-17T04:56:29.948Z,40.63
2018-02-17T05:01:12.355Z,31.02
2018-02-17T05:05:48.247Z,32.67
2018-02-17T05:08:05.019Z,36.60
2018-02-17T05:10:05.972Z,30.02
2018-02-17T05:12:07.010Z,29.80
2018-02-17T05:14:09.777Z,33.70
2018-02-17T05:16:20.727Z,34.28
2018-02-17T05:18:27.676Z,32.85
2018-02-17T05:20:31.261Z,31.45
2018-02-17T05:22:32.187Z,31.50
2018-02-17T05:24:37.952Z,31.48
2018-02-17T05:26:59.852Z,31.40
2018-02-17T05:29:01.667Z,25.92
2018-02-17T05:31:04.454Z,25.10
2018-02-17T05:33:10.428Z,38.83
2018-02-17T05:35:25.875Z,36.42
2018-02-17T05:37:26.828Z,37.33
2018-02-17T05:39:29.684Z,30.87
2018-02-17T05:41:55.044Z,31.83
2018-02-17T05:43:56.006Z,32.80
2018-02-17T05:45:57.870Z,36.33
2018-02-17T05:50:27.449Z,28.43
2018-02-17T05:52:28.407Z,26.98
2018-02-17T05:54:54.094Z,22.63
2018-02-17T05:56:55.796Z,30.62
2018-02-17T05:58:56.779Z,21.98
2018-02-17T06:01:23.773Z,29.43
2018-02-17T06:05:52.407Z,35.57
2018-02-17T06:07:53.467Z,29.55
2018-02-17T06:12:23.935Z,31.55
2018-02-17T06:14:24.984Z,27.85
2018-02-17T06:16:25.927Z,36.35
2018-02-17T06:21:03.627Z,32.83
2018-02-17T06:23:04.585Z,29.80
2018-02-17T06:25:05.546Z,38.33
2018-02-17T06:29:34.305Z,39.95
2018-02-17T06:31:35.272Z,36.97
2018-02-17T06:33:36.295Z,41.03
2018-02-17T06:35:37.235Z,39.20
2018-02-17T06:37:38.208Z,40.43
2018-02-17T06:39:39.227Z,39.00
2018-02-17T06:41:40.172Z,27.65
2018-02-17T06:43:41.157Z,41.70
2018-02-17T06:45:42.887Z,39.83
2018-02-17T06:47:54.467Z,41.10
2018-02-17T06:49:55.471Z,35.42
2018-02-17T06:54:24.511Z,41.78
2018-02-17T07:01:22.917Z,34.58
2018-02-17T07:03:23.952Z,27.95
2018-02-17T07:05:24.956Z,23.58
2018-02-17T07:07:25.964Z,30.15
2018-02-17T07:09:35.299Z,36.90
2018-02-17T07:11:53.723Z,39.47
2018-02-17T07:13:54.681Z,35.33
2018-02-17T07:15:55.637Z,33.00
2018-02-17T07:17:56.571Z,33.17
2018-02-17T07:20:07.479Z,27.73
2018-02-17T07:22:08.443Z,38.92
2018-02-17T07:26:37.283Z,32.33
2018-02-17T07:28:38.275Z,35.80
2018-02-17T07:30:54.071Z,30.30
2018-02-17T07:32:55.035Z,28.62
2018-02-17T07:34:55.970Z,26.90
2018-02-17T07:36:56.878Z,32.23
2018-02-17T07:38:57.849Z,31.50
2018-02-17T07:40:58.856Z,27.03
2018-02-17T07:42:59.772Z,26.25
2018-02-17T07:45:00.704Z,36.23
2018-02-17T07:47:23.554Z,31.83
2018-02-17T07:49:24.511Z,27.45
2018-02-17T07:53:52.091Z,30.50
2018-02-17T07:58:20.598Z,28.92
2018-02-17T08:00:21.547Z,29.77
2018-02-17T08:02:22.474Z,37.70
2018-02-17T08:04:23.407Z,35.87
2018-02-17T08:06:24.338Z,42.53
2018-02-17T08:08:25.273Z,36.97
2018-02-17T08:10:26.954Z,33.73
2018-02-17T08:12:27.895Z,33.72
2018-02-17T08:14:28.834Z,35.63
2018-02-17T08:16:30.495Z,33.93
2018-02-17T08:18:32.184Z,43.72
2018-02-17T08:20:33.139Z,51.28
2018-02-17T08:22:34.171Z,40.87
2018-02-17T08:24:35.175Z,36.93
2018-02-17T08:26:36.047Z,42.03
2018-02-17T08:28:38.060Z,49.05
2018-02-17T08:30:39.031Z,41.30
2018-02-17T08:32:39.954Z,53.10
2018-02-17T08:34:40.884Z,54.15
2018-02-17T08:36:41.803Z,46.83
2018-02-17T08:39:04.552Z,37.20
2018-02-17T08:41:06.257Z,42.38
2018-02-17T08:43:24.428Z,41.47
2018-02-17T08:45:25.418Z,52.53
2018-02-17T08:47:27.090Z,56.13
2018-02-17T08:52:23.988Z,47.40
2018-02-17T08:56:53.930Z,75.53
2018-02-17T08:58:55.611Z,69.10
2018-02-17T09:00:56.551Z,72.80
2018-02-17T09:02:57.481Z,67.70
2018-02-17T09:05:02.445Z,52.20
2018-02-17T09:07:04.448Z,72.73
2018-02-17T09:09:05.366Z,50.63
2018-02-17T09:11:06.307Z,59.30
2018-02-17T09:13:09.654Z,51.00
2018-02-17T09:15:10.680Z,67.80
2018-02-17T09:17:13.543Z,53.37
2018-02-17T09:19:14.527Z,61.30
2018-02-17T09:21:15.447Z,50.53
2018-02-17T09:23:16.354Z,56.10
2018-02-17T09:25:17.331Z,51.40
2018-02-17T09:27:20.507Z,54.78
2018-02-17T09:29:21.495Z,55.93
2018-02-17T09:31:22.424Z,59.30
2018-02-17T09:33:23.351Z,55.53
2018-02-17T09:35:24.283Z,59.67
2018-02-17T09:37:25.934Z,62.20
2018-02-17T09:39:27.619Z,48.83
2018-02-17T09:44:08.542Z,52.23
2018-02-17T09:46:09.491Z,54.03
2018-02-17T09:48:10.452Z,49.67
2018-02-17T09:50:11.412Z,56.77
2018-02-17T09:52:12.350Z,52.20
2018-02-17T09:54:23.633Z,54.40
2018-02-17T09:58:52.085Z,55.70
2018-02-17T10:00:53.743Z,59.83
2018-02-17T10:05:21.670Z,51.43
2018-02-17T10:07:22.632Z,66.17
2018-02-17T10:09:35.160Z,61.53
2018-02-17T10:11:36.195Z,57.90
2018-02-17T10:13:37.106Z,54.20
2018-02-17T10:18:05.809Z,48.47
2018-02-17T10:22:44.642Z,54.60
2018-02-17T10:24:45.750Z,52.97
2018-02-17T10:27:07.305Z,61.07
2018-02-17T10:29:08.499Z,56.60
2018-02-17T10:31:09.601Z,62.50
2018-02-17T10:35:38.128Z,64.27
2018-02-17T10:42:55.169Z,60.63
2018-02-17T10:44:56.281Z,58.90
2018-02-17T10:46:57.437Z,52.83
2018-02-17T10:48:58.593Z,63.37
2018-02-17T10:51:00.493Z,53.83
2018-02-17T10:53:01.554Z,63.37
2018-02-17T10:55:02.627Z,76.47
2018-02-17T10:57:03.742Z,67.50
2018-02-17T10:59:18.158Z,58.33
2018-02-17T11:01:19.103Z,69.10
2018-02-17T11:03:20.019Z,65.77
2018-02-17T11:05:20.938Z,57.87
2018-02-17T11:07:21.896Z,74.33
2018-02-17T11:09:22.856Z,63.35
2018-02-17T11:11:37.471Z,61.90
2018-02-17T11:13:38.407Z,59.70
2018-02-17T11:15:39.346Z,66.68
2018-02-17T11:17:40.265Z,63.03
2018-02-17T11:22:08.564Z,61.83
2018-02-17T11:24:09.505Z,61.53
2018-02-17T11:26:10.429Z,69.70
2018-02-17T11:28:12.117Z,55.47
2018-02-17T11:30:21.900Z,59.33
2018-02-17T11:32:22.843Z,56.87
2018-02-17T11:34:23.786Z,57.60
2018-02-17T11:36:53.771Z,55.90
2018-02-17T11:38:55.475Z,47.67
2018-02-17T11:41:24.255Z,60.37
2018-02-17T11:43:25.189Z,53.13
2018-02-17T11:45:26.131Z,66.07
2018-02-17T11:47:27.062Z,66.53
2018-02-17T11:49:28.006Z,67.00
2018-02-17T11:51:29.678Z,56.67
2018-02-17T11:53:53.981Z,56.73
2018-02-17T11:58:22.778Z,57.23
2018-02-17T12:00:25.803Z,59.10
2018-02-17T12:04:55.032Z,57.10
2018-02-17T12:06:55.989Z,61.63
2018-02-17T12:08:56.939Z,57.50
2018-02-17T12:10:57.875Z,72.23
2018-02-17T12:13:21.620Z,63.63
2018-02-17T12:15:22.568Z,54.03
2018-02-17T12:19:51.683Z,52.93
2018-02-17T12:21:52.636Z,61.00
2018-02-17T12:23:53.580Z,58.92
2018-02-17T12:25:54.631Z,58.47
2018-02-17T12:27:55.555Z,65.30
2018-02-17T12:29:56.652Z,58.33
2018-02-17T12:32:22.128Z,62.43
2018-02-17T12:34:23.264Z,65.17
2018-02-17T12:38:52.111Z,59.28
2018-02-17T12:40:53.256Z,56.07
2018-02-17T12:42:54.266Z,65.60
2018-02-17T12:44:55.212Z,65.80
2018-02-17T12:46:56.152Z,62.87
2018-02-17T12:49:21.347Z,73.43
2018-02-17T12:51:22.296Z,61.57
2018-02-17T12:53:24.029Z,66.80
2018-02-17T12:55:24.928Z,62.70
2018-02-17T12:57:26.062Z,57.13
2018-02-17T12:59:37.036Z,67.53
2018-02-17T13:01:51.365Z,65.33
2018-02-17T13:03:52.308Z,75.03
2018-02-17T13:05:53.291Z,56.70
2018-02-17T13:08:19.395Z,61.67
2018-02-17T13:10:20.352Z,61.37
2018-02-17T13:12:50.304Z,55.03
2018-02-17T13:14:51.244Z,56.53
2018-02-17T13:16:52.305Z,60.07
2018-02-17T13:18:53.240Z,58.33
2018-02-17T13:20:54.167Z,55.03
2018-02-17T13:22:55.332Z,54.20
2018-02-17T13:27:25.348Z,64.50
2018-02-17T13:29:26.356Z,66.43
2018-02-17T13:33:46.610Z,55.77
2018-02-17T13:35:47.578Z,62.20
2018-02-17T13:37:49.847Z,60.23
2018-02-17T13:40:20.271Z,63.00
2018-02-17T13:42:21.590Z,60.73
2018-02-17T13:44:22.556Z,61.23
2018-02-17T13:46:39.392Z,55.00
2018-02-17T13:48:40.628Z,59.00
2018-02-17T13:53:09.785Z,74.33
2018-02-17T13:55:10.740Z,66.43
2018-02-17T13:57:11.680Z,58.50
2018-02-17T13:59:12.615Z,62.50
2018-02-17T14:01:13.544Z,63.47
2018-02-17T14:03:14.475Z,58.20
2018-02-17T14:07:44.617Z,58.97
2018-02-17T14:10:09.943Z,62.53
2018-02-17T14:12:10.887Z,68.60
2018-02-17T14:14:11.924Z,61.10
2018-02-17T14:16:39.344Z,57.80
2018-02-17T14:18:40.279Z,65.55
2018-02-17T14:20:41.282Z,64.73
2018-02-17T14:22:42.228Z,59.13
2018-02-17T14:24:43.151Z,64.63
2018-02-17T14:26:44.808Z,62.63
2018-02-17T14:31:22.706Z,59.70
2018-02-17T14:33:23.636Z,80.43
2018-02-17T14:35:40.747Z,73.73
2018-02-17T14:37:41.751Z,69.97
2018-02-17T14:39:42.699Z,78.47
2018-02-17T14:41:43.614Z,63.03
2018-02-17T14:43:44.541Z,69.13
2018-02-17T14:46:05.716Z,67.33
2018-02-17T14:48:07.387Z,60.00
2018-02-17T14:50:09.331Z,56.30
2018-02-17T14:54:38.191Z,67.37
2018-02-17T14:56:39.196Z,71.53
2018-02-17T14:58:40.188Z,76.87
2018-02-17T15:00:41.148Z,69.17
2018-02-17T15:02:42.143Z,60.90
2018-02-17T15:04:43.108Z,58.17
2018-02-17T15:06:44.807Z,63.10
2018-02-17T15:13:51.501Z,65.20
2018-02-17T15:15:53.332Z,57.90
2018-02-17T15:17:54.467Z,70.07
2018-02-17T15:19:55.574Z,56.87
2018-02-17T15:21:56.740Z,49.70
2018-02-17T15:23:57.810Z,50.27
2018-02-17T15:25:58.906Z,57.50
2018-02-17T15:28:00.757Z,57.35
2018-02-17T15:30:09.620Z,59.33
2018-02-17T15:32:10.717Z,62.73
2018-02-17T15:36:40.612Z,58.40
2018-02-17T15:38:42.463Z,74.13
2018-02-17T15:40:44.299Z,65.03
2018-02-17T15:42:45.437Z,69.87
2018-02-17T15:44:46.575Z,66.80
2018-02-17T15:46:49.667Z,67.60
2018-02-17T15:48:50.785Z,58.40
2018-02-17T15:50:52.700Z,65.10
2018-02-17T15:55:39.749Z,68.50
2018-02-17T15:57:40.933Z,66.10
2018-02-17T16:02:10.031Z,67.23
2018-02-17T16:04:11.161Z,73.43
2018-02-17T16:06:12.383Z,63.83
2018-02-17T16:08:39.321Z,56.20
2018-02-17T16:13:08.322Z,58.60
2018-02-17T16:15:10.414Z,69.50
2018-02-17T16:17:11.597Z,76.63
2018-02-17T16:19:12.710Z,71.23
2018-02-17T16:23:42.832Z,63.90
2018-02-17T16:25:43.960Z,51.23
2018-02-17T16:27:45.117Z,75.63
2018-02-17T16:29:46.215Z,58.15
2018-02-17T16:31:47.409Z,56.70
2018-02-17T16:36:41.214Z,54.10
2018-02-17T16:38:43.092Z,64.60
2018-02-17T16:40:44.160Z,72.57
2018-02-17T16:42:45.257Z,59.10
2018-02-17T16:44:46.387Z,51.88
2018-02-17T16:46:47.613Z,58.60
2018-02-17T16:51:26.194Z,61.10
2018-02-17T16:55:55.336Z,51.90
2018-02-17T16:58:09.720Z,58.50
2018-02-17T17:00:19.136Z,61.30
2018-02-17T17:02:20.763Z,59.73
2018-02-17T17:04:21.964Z,71.17
2018-02-17T17:08:50.455Z,67.50
2018-02-17T17:10:51.839Z,56.87
2018-02-17T17:15:20.640Z,76.37
2018-02-17T17:17:21.595Z,59.30
2018-02-17T17:19:30.913Z,61.17
2018-02-17T17:21:31.851Z,49.60
2018-02-17T17:31:22.437Z,57.67
2018-02-17T17:33:23.500Z,60.60
2018-02-17T17:35:24.423Z,56.00
2018-02-17T17:37:26.084Z,51.50
2018-02-17T17:39:42.695Z,44.97
2018-02-17T17:41:43.805Z,60.90
2018-02-17T17:43:44.746Z,54.23
2018-02-17T17:45:45.684Z,41.00
2018-02-17T17:47:46.611Z,47.53
2018-02-17T17:49:47.531Z,39.40
2018-02-17T17:52:15.268Z,45.60
2018-02-17T17:54:16.207Z,49.23
2018-02-17T17:56:17.241Z,52.10
2018-02-17T17:58:18.221Z,56.95
2018-02-17T18:00:19.159Z,49.40
2018-02-17T18:02:20.264Z,49.30
2018-02-17T18:04:21.203Z,54.53
2018-02-17T18:06:22.160Z,71.27
2018-02-17T18:11:08.581Z,58.47
2018-02-17T18:13:24.578Z,66.53
2018-02-17T18:17:53.658Z,50.43
2018-02-17T18:20:02.797Z,64.12
2018-02-17T18:22:03.759Z,65.03
2018-02-17T18:26:33.023Z,67.93
2018-02-17T18:28:34.709Z,69.60
2018-02-17T18:33:03.970Z,77.72
2018-02-17T18:35:06.058Z,57.27
2018-02-17T18:37:06.983Z,67.47
2018-02-17T18:39:07.922Z,48.20
2018-02-17T18:41:35.558Z,63.03
2018-02-17T18:43:36.555Z,56.27
2018-02-17T18:45:37.472Z,60.53
2018-02-17T18:47:38.407Z,85.80
2018-02-17T18:49:39.323Z,65.37
2018-02-17T18:51:40.979Z,54.30
2018-02-17T18:56:09.256Z,55.20
2018-02-17T18:58:35.548Z,42.03
2018-02-17T19:00:36.509Z,60.67
2018-02-17T19:02:37.482Z,52.63
2018-02-17T19:04:38.444Z,54.67
2018-02-17T19:06:39.372Z,54.03
2018-02-17T19:08:40.361Z,51.00
2018-02-17T19:10:42.059Z,65.30
2018-02-17T19:12:43.041Z,54.53
2018-02-17T19:14:43.990Z,65.35
2018-02-17T19:16:44.988Z,57.20
2018-02-17T19:21:23.324Z,46.30
2018-02-17T19:25:52.538Z,39.77
2018-02-17T19:27:53.475Z,45.60
2018-02-17T19:34:51.488Z,62.10
2018-02-17T19:39:22.094Z,60.80
2018-02-17T19:41:51.613Z,57.83
2018-02-17T19:46:19.928Z,61.63
2018-02-17T19:48:21.661Z,67.13
2018-02-17T19:50:22.702Z,52.20
2018-02-17T19:54:52.174Z,53.57
2018-02-17T19:59:31.507Z,67.13
2018-02-17T20:01:32.456Z,47.67
2018-02-17T20:03:33.425Z,63.23
2018-02-17T20:08:07.931Z,77.87
2018-02-17T20:10:08.893Z,79.00
2018-02-17T20:12:09.828Z,67.85
2018-02-17T20:14:10.847Z,65.10
2018-02-17T20:16:11.811Z,79.37
2018-02-17T20:18:12.749Z,82.10
2018-02-17T20:20:23.643Z,78.37
2018-02-17T20:22:24.589Z,79.67
2018-02-17T20:24:25.576Z,73.63
2018-02-17T20:26:26.498Z,57.43
2018-02-17T20:31:05.389Z,60.93
2018-02-17T20:33:06.327Z,73.93
2018-02-17T20:35:07.296Z,64.30
2018-02-17T20:39:45.607Z,66.87
2018-02-17T20:41:46.542Z,59.20
2018-02-17T20:43:47.519Z,60.93
2018-02-17T20:46:12.463Z,72.63
2018-02-17T20:48:13.463Z,85.07
2018-02-17T20:50:14.385Z,82.00
2018-02-17T20:57:10.020Z,94.85
2018-02-17T20:59:10.991Z,84.73
2018-02-17T21:01:11.916Z,73.53
2018-02-17T21:03:12.933Z,64.35
2018-02-17T21:07:42.162Z,61.13
2018-02-17T21:09:43.126Z,61.90
2018-02-17T21:11:44.276Z,66.93
2018-02-17T21:13:45.284Z,61.37
2018-02-17T21:15:46.208Z,76.30
2018-02-17T21:20:16.087Z,62.53
2018-02-17T21:22:37.692Z,67.53
2018-02-17T21:24:38.627Z,77.45
2018-02-17T21:29:07.296Z,66.33
2018-02-17T21:31:08.255Z,62.55
2018-02-17T21:33:09.948Z,78.57
2018-02-17T21:35:10.883Z,72.10
2018-02-17T21:37:11.856Z,69.13
2018-02-17T21:39:12.784Z,79.15
2018-02-17T21:41:13.711Z,73.03
2018-02-17T21:43:15.384Z,71.63
2018-02-17T21:45:16.325Z,80.00
2018-02-17T21:47:17.246Z,88.12
2018-02-17T21:49:27.092Z,82.83
2018-02-17T21:51:28.039Z,80.10
2018-02-17T21:53:29.108Z,75.68
2018-02-17T21:55:34.431Z,73.20
2018-02-17T22:00:04.115Z,68.40
2018-02-17T22:04:33.723Z,59.80
2018-02-17T22:06:35.436Z,74.10
2018-02-17T22:08:36.375Z,83.70
2018-02-17T22:10:37.311Z,83.80
2018-02-17T22:12:38.363Z,74.03
2018-02-17T22:14:39.332Z,70.10
2018-02-17T22:16:40.383Z,74.37
2018-02-17T22:18:41.318Z,73.80
2018-02-17T22:20:42.281Z,85.17
2018-02-17T22:22:43.275Z,76.37
2018-02-17T22:24:44.211Z,63.40
2018-02-17T22:26:45.159Z,75.80
2018-02-17T22:29:04.164Z,77.33
2018-02-17T22:31:05.132Z,65.23
2018-02-17T22:33:06.103Z,72.97
2018-02-17T22:35:07.112Z,64.33
2018-02-17T22:37:08.065Z,94.00
2018-02-17T22:39:09.030Z,84.70
2018-02-17T22:41:10.006Z,66.97
2018-02-17T22:43:11.720Z,75.67
2018-02-17T22:45:12.720Z,67.25
2018-02-17T22:47:34.320Z,78.80
2018-02-17T22:49:35.299Z,63.03
2018-02-17T22:51:38.448Z,83.00
2018-02-17T22:54:03.520Z,79.90
2018-02-17T22:56:04.916Z,65.20
2018-02-17T23:00:42.714Z,72.87
2018-02-17T23:02:43.672Z,67.12
2018-02-17T23:04:49.700Z,57.50
2018-02-17T23:06:51.450Z,56.15
2018-02-17T23:11:20.393Z,52.33
2018-02-17T23:15:49.755Z,54.58
2018-02-17T23:17:50.772Z,68.33
2018-02-17T23:19:52.555Z,58.63
2018-02-17T23:22:19.572Z,58.50
2018-02-17T23:29:15.976Z,68.40
2018-02-17T23:31:16.995Z,45.47
2018-02-17T23:33:17.928Z,75.85
2018-02-17T23:35:19.723Z,60.67
2018-02-17T23:37:20.760Z,60.92
2018-02-17T23:39:21.748Z,56.60
2018-02-17T23:41:22.704Z,67.68
2018-02-17T23:43:24.408Z,64.93
2018-02-17T23:45:49.740Z,68.30
2018-02-17T23:47:50.704Z,63.53
2018-02-17T23:49:51.652Z,70.90
2018-02-17T23:54:20.156Z,62.62
2018-02-17T23:56:21.140Z,62.28
2018-02-17T23:58:22.853Z,75.03
